sensor_id;sensor_type;location;lat;lon;timestamp;P1;durP1;ratioP1;P2;durP2;ratioP2
68947;SDS011;55996;49.546;7.400;2024-01-25T00:01:53;21.37;;;5.10;;
68947;SDS011;55996;49.546;7.400;2024-01-25T00:04:19;19.27;;;4.33;;
68947;SDS011;55996;49.546;7.400;2024-01-25T00:06:44;22.00;;;5.27;;
68947;SDS011;55996;49.546;7.400;2024-01-25T00:09:10;20.43;;;4.97;;
68947;SDS011;55996;49.546;7.400;2024-01-25T00:11:35;24.73;;;5.30;;
68947;SDS011;55996;49.546;7.400;2024-01-25T00:14:00;24.47;;;5.83;;
68947;SDS011;55996;49.546;7.400;2024-01-25T00:16:27;24.20;;;4.97;;
68947;SDS011;55996;49.546;7.400;2024-01-25T00:18:52;25.10;;;5.00;;
68947;SDS011;55996;49.546;7.400;2024-01-25T00:21:17;24.27;;;4.57;;
68947;SDS011;55996;49.546;7.400;2024-01-25T00:23:43;26.33;;;5.50;;
68947;SDS011;55996;49.546;7.400;2024-01-25T00:26:08;24.43;;;5.47;;
68947;SDS011;55996;49.546;7.400;2024-01-25T00:28:34;21.73;;;4.80;;
68947;SDS011;55996;49.546;7.400;2024-01-25T00:30:59;23.47;;;5.00;;
68947;SDS011;55996;49.546;7.400;2024-01-25T00:33:24;17.63;;;4.70;;
68947;SDS011;55996;49.546;7.400;2024-01-25T00:35:50;23.53;;;5.00;;
68947;SDS011;55996;49.546;7.400;2024-01-25T00:38:16;15.67;;;4.23;;
68947;SDS011;55996;49.546;7.400;2024-01-25T00:40:41;20.80;;;4.90;;
68947;SDS011;55996;49.546;7.400;2024-01-25T00:43:07;17.23;;;5.43;;
68947;SDS011;55996;49.546;7.400;2024-01-25T00:45:33;23.03;;;4.90;;
68947;SDS011;55996;49.546;7.400;2024-01-25T00:47:58;21.30;;;4.70;;
68947;SDS011;55996;49.546;7.400;2024-01-25T00:50:24;26.93;;;5.20;;
68947;SDS011;55996;49.546;7.400;2024-01-25T00:52:51;23.40;;;5.47;;
68947;SDS011;55996;49.546;7.400;2024-01-25T00:55:16;19.17;;;4.17;;
68947;SDS011;55996;49.546;7.400;2024-01-25T00:57:42;21.10;;;4.50;;
68947;SDS011;55996;49.546;7.400;2024-01-25T01:00:08;23.80;;;5.53;;
68947;SDS011;55996;49.546;7.400;2024-01-25T01:02:44;21.20;;;5.23;;
68947;SDS011;55996;49.546;7.400;2024-01-25T01:05:11;22.00;;;4.40;;
68947;SDS011;55996;49.546;7.400;2024-01-25T01:07:37;18.63;;;4.43;;
68947;SDS011;55996;49.546;7.400;2024-01-25T01:10:05;18.47;;;5.37;;
68947;SDS011;55996;49.546;7.400;2024-01-25T01:12:32;22.43;;;4.43;;
68947;SDS011;55996;49.546;7.400;2024-01-25T01:14:57;17.23;;;4.60;;
68947;SDS011;55996;49.546;7.400;2024-01-25T01:17:22;27.47;;;5.53;;
68947;SDS011;55996;49.546;7.400;2024-01-25T01:19:48;26.30;;;5.20;;
68947;SDS011;55996;49.546;7.400;2024-01-25T01:22:14;23.73;;;5.13;;
68947;SDS011;55996;49.546;7.400;2024-01-25T01:24:39;22.33;;;4.57;;
68947;SDS011;55996;49.546;7.400;2024-01-25T01:27:04;17.03;;;4.67;;
68947;SDS011;55996;49.546;7.400;2024-01-25T01:29:30;23.80;;;5.57;;
68947;SDS011;55996;49.546;7.400;2024-01-25T01:31:55;19.23;;;4.43;;
68947;SDS011;55996;49.546;7.400;2024-01-25T01:34:20;24.97;;;5.20;;
68947;SDS011;55996;49.546;7.400;2024-01-25T01:36:46;22.27;;;5.50;;
68947;SDS011;55996;49.546;7.400;2024-01-25T01:39:11;22.03;;;4.83;;
68947;SDS011;55996;49.546;7.400;2024-01-25T01:41:37;25.30;;;4.87;;
68947;SDS011;55996;49.546;7.400;2024-01-25T01:44:02;23.60;;;4.93;;
68947;SDS011;55996;49.546;7.400;2024-01-25T01:46:34;23.47;;;4.87;;
68947;SDS011;55996;49.546;7.400;2024-01-25T01:49:05;19.97;;;4.87;;
68947;SDS011;55996;49.546;7.400;2024-01-25T01:51:32;16.10;;;4.27;;
68947;SDS011;55996;49.546;7.400;2024-01-25T01:53:59;18.53;;;4.67;;
68947;SDS011;55996;49.546;7.400;2024-01-25T01:56:28;24.40;;;4.73;;
68947;SDS011;55996;49.546;7.400;2024-01-25T01:58:55;19.97;;;4.80;;
68947;SDS011;55996;49.546;7.400;2024-01-25T02:01:23;24.77;;;5.67;;
68947;SDS011;55996;49.546;7.400;2024-01-25T02:03:49;22.27;;;4.67;;
68947;SDS011;55996;49.546;7.400;2024-01-25T02:06:14;19.63;;;5.00;;
68947;SDS011;55996;49.546;7.400;2024-01-25T02:08:40;21.33;;;4.77;;
68947;SDS011;55996;49.546;7.400;2024-01-25T02:11:05;19.63;;;5.03;;
68947;SDS011;55996;49.546;7.400;2024-01-25T02:13:32;24.03;;;5.07;;
68947;SDS011;55996;49.546;7.400;2024-01-25T02:15:58;14.87;;;4.17;;
68947;SDS011;55996;49.546;7.400;2024-01-25T02:18:23;15.87;;;3.80;;
68947;SDS011;55996;49.546;7.400;2024-01-25T02:20:49;19.30;;;5.10;;
68947;SDS011;55996;49.546;7.400;2024-01-25T02:23:14;22.67;;;4.87;;
68947;SDS011;55996;49.546;7.400;2024-01-25T02:25:39;21.07;;;4.23;;
68947;SDS011;55996;49.546;7.400;2024-01-25T02:28:05;20.67;;;4.20;;
68947;SDS011;55996;49.546;7.400;2024-01-25T02:30:30;23.07;;;4.73;;
68947;SDS011;55996;49.546;7.400;2024-01-25T02:32:56;16.67;;;4.03;;
68947;SDS011;55996;49.546;7.400;2024-01-25T02:35:21;18.73;;;4.00;;
68947;SDS011;55996;49.546;7.400;2024-01-25T02:37:47;15.07;;;3.80;;
68947;SDS011;55996;49.546;7.400;2024-01-25T02:40:12;19.50;;;4.93;;
68947;SDS011;55996;49.546;7.400;2024-01-25T02:42:38;13.67;;;4.63;;
68947;SDS011;55996;49.546;7.400;2024-01-25T02:45:03;16.87;;;3.53;;
68947;SDS011;55996;49.546;7.400;2024-01-25T02:47:29;20.30;;;4.23;;
68947;SDS011;55996;49.546;7.400;2024-01-25T02:49:54;15.93;;;4.03;;
68947;SDS011;55996;49.546;7.400;2024-01-25T02:52:19;19.73;;;4.97;;
68947;SDS011;55996;49.546;7.400;2024-01-25T02:54:45;20.97;;;3.73;;
68947;SDS011;55996;49.546;7.400;2024-01-25T02:57:10;20.87;;;4.40;;
68947;SDS011;55996;49.546;7.400;2024-01-25T02:59:35;16.40;;;4.30;;
68947;SDS011;55996;49.546;7.400;2024-01-25T03:02:01;19.03;;;3.97;;
68947;SDS011;55996;49.546;7.400;2024-01-25T03:04:26;17.07;;;3.80;;
68947;SDS011;55996;49.546;7.400;2024-01-25T03:06:51;10.80;;;4.20;;
68947;SDS011;55996;49.546;7.400;2024-01-25T03:09:16;20.20;;;4.73;;
68947;SDS011;55996;49.546;7.400;2024-01-25T03:11:42;24.23;;;4.67;;
68947;SDS011;55996;49.546;7.400;2024-01-25T03:14:07;18.03;;;4.23;;
68947;SDS011;55996;49.546;7.400;2024-01-25T03:16:32;24.13;;;4.80;;
68947;SDS011;55996;49.546;7.400;2024-01-25T03:18:58;16.23;;;3.73;;
68947;SDS011;55996;49.546;7.400;2024-01-25T03:21:23;16.50;;;3.97;;
68947;SDS011;55996;49.546;7.400;2024-01-25T03:23:49;21.80;;;4.00;;
68947;SDS011;55996;49.546;7.400;2024-01-25T03:26:14;20.47;;;4.83;;
68947;SDS011;55996;49.546;7.400;2024-01-25T03:28:40;24.70;;;4.93;;
68947;SDS011;55996;49.546;7.400;2024-01-25T03:31:05;16.23;;;4.43;;
68947;SDS011;55996;49.546;7.400;2024-01-25T03:33:31;17.23;;;4.60;;
68947;SDS011;55996;49.546;7.400;2024-01-25T03:36:02;22.90;;;5.43;;
68947;SDS011;55996;49.546;7.400;2024-01-25T03:38:28;19.57;;;4.07;;
68947;SDS011;55996;49.546;7.400;2024-01-25T03:40:54;17.60;;;4.00;;
68947;SDS011;55996;49.546;7.400;2024-01-25T03:43:21;25.10;;;5.07;;
68947;SDS011;55996;49.546;7.400;2024-01-25T03:45:48;15.13;;;4.03;;
68947;SDS011;55996;49.546;7.400;2024-01-25T03:48:14;16.37;;;3.90;;
68947;SDS011;55996;49.546;7.400;2024-01-25T03:50:39;22.97;;;4.33;;
68947;SDS011;55996;49.546;7.400;2024-01-25T03:53:05;20.83;;;4.33;;
68947;SDS011;55996;49.546;7.400;2024-01-25T03:55:31;20.83;;;4.00;;
68947;SDS011;55996;49.546;7.400;2024-01-25T03:57:57;16.03;;;4.13;;
68947;SDS011;55996;49.546;7.400;2024-01-25T04:00:22;22.77;;;4.50;;
68947;SDS011;55996;49.546;7.400;2024-01-25T04:02:47;24.00;;;4.43;;
68947;SDS011;55996;49.546;7.400;2024-01-25T04:05:13;15.67;;;3.70;;
68947;SDS011;55996;49.546;7.400;2024-01-25T04:07:39;18.97;;;4.50;;
68947;SDS011;55996;49.546;7.400;2024-01-25T04:10:05;19.40;;;5.40;;
68947;SDS011;55996;49.546;7.400;2024-01-25T04:12:30;23.13;;;4.60;;
68947;SDS011;55996;49.546;7.400;2024-01-25T04:14:57;19.60;;;4.60;;
68947;SDS011;55996;49.546;7.400;2024-01-25T04:17:23;24.33;;;5.27;;
68947;SDS011;55996;49.546;7.400;2024-01-25T04:19:48;23.73;;;4.80;;
68947;SDS011;55996;49.546;7.400;2024-01-25T04:22:13;21.73;;;4.43;;
68947;SDS011;55996;49.546;7.400;2024-01-25T04:24:39;18.57;;;4.23;;
68947;SDS011;55996;49.546;7.400;2024-01-25T04:27:04;18.63;;;4.60;;
68947;SDS011;55996;49.546;7.400;2024-01-25T04:29:30;20.30;;;4.13;;
68947;SDS011;55996;49.546;7.400;2024-01-25T04:31:55;23.73;;;4.87;;
68947;SDS011;55996;49.546;7.400;2024-01-25T04:34:21;22.73;;;5.17;;
68947;SDS011;55996;49.546;7.400;2024-01-25T04:36:47;21.53;;;4.80;;
68947;SDS011;55996;49.546;7.400;2024-01-25T04:39:12;20.33;;;4.20;;
68947;SDS011;55996;49.546;7.400;2024-01-25T04:41:37;19.57;;;4.60;;
68947;SDS011;55996;49.546;7.400;2024-01-25T04:44:03;18.87;;;4.40;;
68947;SDS011;55996;49.546;7.400;2024-01-25T04:46:29;18.40;;;4.17;;
68947;SDS011;55996;49.546;7.400;2024-01-25T04:49:00;22.30;;;4.43;;
68947;SDS011;55996;49.546;7.400;2024-01-25T04:51:25;19.87;;;4.63;;
68947;SDS011;55996;49.546;7.400;2024-01-25T04:53:50;20.93;;;4.27;;
68947;SDS011;55996;49.546;7.400;2024-01-25T04:56:16;13.20;;;3.70;;
68947;SDS011;55996;49.546;7.400;2024-01-25T04:58:41;16.03;;;4.20;;
68947;SDS011;55996;49.546;7.400;2024-01-25T05:01:06;20.80;;;4.47;;
68947;SDS011;55996;49.546;7.400;2024-01-25T05:03:32;15.17;;;3.90;;
68947;SDS011;55996;49.546;7.400;2024-01-25T05:05:58;18.47;;;4.53;;
68947;SDS011;55996;49.546;7.400;2024-01-25T05:08:23;14.60;;;4.80;;
68947;SDS011;55996;49.546;7.400;2024-01-25T05:10:48;24.47;;;5.23;;
68947;SDS011;55996;49.546;7.400;2024-01-25T05:13:14;14.83;;;3.57;;
68947;SDS011;55996;49.546;7.400;2024-01-25T05:15:39;19.73;;;3.97;;
68947;SDS011;55996;49.546;7.400;2024-01-25T05:18:05;14.03;;;4.03;;
68947;SDS011;55996;49.546;7.400;2024-01-25T05:20:31;21.23;;;5.10;;
68947;SDS011;55996;49.546;7.400;2024-01-25T05:23:04;14.47;;;4.10;;
68947;SDS011;55996;49.546;7.400;2024-01-25T05:25:30;19.13;;;4.90;;
68947;SDS011;55996;49.546;7.400;2024-01-25T05:27:56;13.00;;;3.70;;
68947;SDS011;55996;49.546;7.400;2024-01-25T05:30:22;16.30;;;3.90;;
68947;SDS011;55996;49.546;7.400;2024-01-25T05:32:48;17.57;;;4.10;;
68947;SDS011;55996;49.546;7.400;2024-01-25T05:35:14;14.00;;;3.83;;
68947;SDS011;55996;49.546;7.400;2024-01-25T05:37:40;19.43;;;4.83;;
68947;SDS011;55996;49.546;7.400;2024-01-25T05:40:06;24.23;;;5.23;;
68947;SDS011;55996;49.546;7.400;2024-01-25T05:42:32;24.53;;;4.43;;
68947;SDS011;55996;49.546;7.400;2024-01-25T05:44:57;18.37;;;4.30;;
68947;SDS011;55996;49.546;7.400;2024-01-25T05:47:23;16.60;;;4.03;;
68947;SDS011;55996;49.546;7.400;2024-01-25T05:49:48;12.93;;;3.40;;
68947;SDS011;55996;49.546;7.400;2024-01-25T05:52:13;21.97;;;4.77;;
68947;SDS011;55996;49.546;7.400;2024-01-25T05:54:39;17.00;;;4.23;;
68947;SDS011;55996;49.546;7.400;2024-01-25T05:57:24;12.80;;;3.67;;
68947;SDS011;55996;49.546;7.400;2024-01-25T05:59:49;18.90;;;4.47;;
68947;SDS011;55996;49.546;7.400;2024-01-25T06:02:15;19.37;;;4.60;;
68947;SDS011;55996;49.546;7.400;2024-01-25T06:04:40;16.97;;;3.80;;
68947;SDS011;55996;49.546;7.400;2024-01-25T06:07:06;16.10;;;3.47;;
68947;SDS011;55996;49.546;7.400;2024-01-25T06:09:31;14.73;;;4.03;;
68947;SDS011;55996;49.546;7.400;2024-01-25T06:11:57;13.47;;;3.60;;
68947;SDS011;55996;49.546;7.400;2024-01-25T06:14:23;18.80;;;4.13;;
68947;SDS011;55996;49.546;7.400;2024-01-25T06:16:49;15.50;;;3.97;;
68947;SDS011;55996;49.546;7.400;2024-01-25T06:19:14;21.33;;;4.40;;
68947;SDS011;55996;49.546;7.400;2024-01-25T06:21:39;19.23;;;4.70;;
68947;SDS011;55996;49.546;7.400;2024-01-25T06:24:05;23.67;;;4.57;;
68947;SDS011;55996;49.546;7.400;2024-01-25T06:26:31;16.53;;;4.70;;
68947;SDS011;55996;49.546;7.400;2024-01-25T06:28:56;14.10;;;3.60;;
68947;SDS011;55996;49.546;7.400;2024-01-25T06:31:53;15.77;;;4.10;;
68947;SDS011;55996;49.546;7.400;2024-01-25T06:34:18;20.57;;;4.57;;
68947;SDS011;55996;49.546;7.400;2024-01-25T06:36:44;13.90;;;3.53;;
68947;SDS011;55996;49.546;7.400;2024-01-25T06:39:09;21.53;;;4.47;;
68947;SDS011;55996;49.546;7.400;2024-01-25T06:41:35;18.30;;;4.23;;
68947;SDS011;55996;49.546;7.400;2024-01-25T06:44:00;21.43;;;4.80;;
68947;SDS011;55996;49.546;7.400;2024-01-25T06:46:26;15.63;;;4.00;;
68947;SDS011;55996;49.546;7.400;2024-01-25T06:48:51;18.33;;;4.07;;
68947;SDS011;55996;49.546;7.400;2024-01-25T06:51:17;14.60;;;4.17;;
68947;SDS011;55996;49.546;7.400;2024-01-25T06:53:43;24.30;;;4.10;;
68947;SDS011;55996;49.546;7.400;2024-01-25T06:56:08;17.23;;;4.73;;
68947;SDS011;55996;49.546;7.400;2024-01-25T06:58:34;14.97;;;3.30;;
68947;SDS011;55996;49.546;7.400;2024-01-25T07:00:59;21.07;;;4.13;;
68947;SDS011;55996;49.546;7.400;2024-01-25T07:03:25;17.23;;;4.37;;
68947;SDS011;55996;49.546;7.400;2024-01-25T07:05:50;14.50;;;3.70;;
68947;SDS011;55996;49.546;7.400;2024-01-25T07:08:15;17.93;;;4.57;;
68947;SDS011;55996;49.546;7.400;2024-01-25T07:10:41;17.57;;;4.10;;
68947;SDS011;55996;49.546;7.400;2024-01-25T07:13:07;24.17;;;5.90;;
68947;SDS011;55996;49.546;7.400;2024-01-25T07:15:32;19.93;;;5.20;;
68947;SDS011;55996;49.546;7.400;2024-01-25T07:17:57;16.00;;;4.50;;
68947;SDS011;55996;49.546;7.400;2024-01-25T07:20:23;26.80;;;7.27;;
68947;SDS011;55996;49.546;7.400;2024-01-25T07:22:48;25.40;;;5.57;;
68947;SDS011;55996;49.546;7.400;2024-01-25T07:25:14;23.13;;;6.20;;
68947;SDS011;55996;49.546;7.400;2024-01-25T07:27:39;18.77;;;5.50;;
68947;SDS011;55996;49.546;7.400;2024-01-25T07:30:08;12.63;;;5.07;;
68947;SDS011;55996;49.546;7.400;2024-01-25T07:32:34;19.77;;;5.60;;
68947;SDS011;55996;49.546;7.400;2024-01-25T07:35:00;21.93;;;5.70;;
68947;SDS011;55996;49.546;7.400;2024-01-25T07:37:26;20.10;;;5.10;;
68947;SDS011;55996;49.546;7.400;2024-01-25T07:39:51;15.77;;;4.57;;
68947;SDS011;55996;49.546;7.400;2024-01-25T07:42:16;17.93;;;4.27;;
68947;SDS011;55996;49.546;7.400;2024-01-25T07:44:43;15.23;;;4.30;;
68947;SDS011;55996;49.546;7.400;2024-01-25T07:47:08;20.87;;;4.60;;
68947;SDS011;55996;49.546;7.400;2024-01-25T07:49:33;15.90;;;4.57;;
68947;SDS011;55996;49.546;7.400;2024-01-25T07:51:59;16.30;;;4.40;;
68947;SDS011;55996;49.546;7.400;2024-01-25T07:54:24;13.87;;;3.97;;
68947;SDS011;55996;49.546;7.400;2024-01-25T07:56:50;17.33;;;4.80;;
68947;SDS011;55996;49.546;7.400;2024-01-25T07:59:15;20.00;;;4.60;;
68947;SDS011;55996;49.546;7.400;2024-01-25T08:01:40;23.23;;;5.60;;
68947;SDS011;55996;49.546;7.400;2024-01-25T08:04:06;17.10;;;4.70;;
68947;SDS011;55996;49.546;7.400;2024-01-25T08:06:31;24.13;;;4.83;;
68947;SDS011;55996;49.546;7.400;2024-01-25T08:08:57;14.40;;;4.73;;
68947;SDS011;55996;49.546;7.400;2024-01-25T08:11:22;15.57;;;4.53;;
68947;SDS011;55996;49.546;7.400;2024-01-25T08:13:48;18.60;;;5.10;;
68947;SDS011;55996;49.546;7.400;2024-01-25T08:16:14;17.33;;;4.73;;
68947;SDS011;55996;49.546;7.400;2024-01-25T08:18:44;13.57;;;4.07;;
68947;SDS011;55996;49.546;7.400;2024-01-25T08:21:10;24.10;;;5.30;;
68947;SDS011;55996;49.546;7.400;2024-01-25T08:23:36;20.80;;;4.93;;
68947;SDS011;55996;49.546;7.400;2024-01-25T08:26:02;19.73;;;5.37;;
68947;SDS011;55996;49.546;7.400;2024-01-25T08:28:27;21.47;;;4.90;;
68947;SDS011;55996;49.546;7.400;2024-01-25T08:30:53;20.13;;;4.60;;
68947;SDS011;55996;49.546;7.400;2024-01-25T08:33:18;13.00;;;4.37;;
68947;SDS011;55996;49.546;7.400;2024-01-25T08:35:44;16.67;;;4.03;;
68947;SDS011;55996;49.546;7.400;2024-01-25T08:38:09;18.07;;;5.43;;
68947;SDS011;55996;49.546;7.400;2024-01-25T08:40:34;22.87;;;5.13;;
68947;SDS011;55996;49.546;7.400;2024-01-25T08:43:00;21.03;;;6.33;;
68947;SDS011;55996;49.546;7.400;2024-01-25T08:45:25;21.33;;;6.60;;
68947;SDS011;55996;49.546;7.400;2024-01-25T08:47:50;20.87;;;6.33;;
68947;SDS011;55996;49.546;7.400;2024-01-25T08:50:17;19.10;;;5.30;;
68947;SDS011;55996;49.546;7.400;2024-01-25T08:52:42;19.73;;;6.13;;
68947;SDS011;55996;49.546;7.400;2024-01-25T08:55:09;20.77;;;6.17;;
68947;SDS011;55996;49.546;7.400;2024-01-25T08:57:35;20.97;;;5.47;;
68947;SDS011;55996;49.546;7.400;2024-01-25T09:00:00;24.73;;;5.63;;
68947;SDS011;55996;49.546;7.400;2024-01-25T09:02:26;22.33;;;5.80;;
68947;SDS011;55996;49.546;7.400;2024-01-25T09:04:54;23.00;;;6.67;;
68947;SDS011;55996;49.546;7.400;2024-01-25T09:07:19;20.03;;;6.17;;
68947;SDS011;55996;49.546;7.400;2024-01-25T09:09:45;21.77;;;6.80;;
68947;SDS011;55996;49.546;7.400;2024-01-25T09:12:10;18.53;;;7.27;;
68947;SDS011;55996;49.546;7.400;2024-01-25T09:14:37;27.73;;;8.20;;
68947;SDS011;55996;49.546;7.400;2024-01-25T09:17:03;32.23;;;8.90;;
68947;SDS011;55996;49.546;7.400;2024-01-25T09:19:28;25.37;;;8.07;;
68947;SDS011;55996;49.546;7.400;2024-01-25T09:21:54;26.13;;;6.97;;
68947;SDS011;55996;49.546;7.400;2024-01-25T09:24:20;21.07;;;5.83;;
68947;SDS011;55996;49.546;7.400;2024-01-25T09:26:45;26.60;;;6.37;;
68947;SDS011;55996;49.546;7.400;2024-01-25T09:29:11;32.63;;;7.37;;
68947;SDS011;55996;49.546;7.400;2024-01-25T09:31:36;29.53;;;6.87;;
68947;SDS011;55996;49.546;7.400;2024-01-25T09:34:01;28.90;;;7.23;;
68947;SDS011;55996;49.546;7.400;2024-01-25T09:36:27;30.33;;;6.30;;
68947;SDS011;55996;49.546;7.400;2024-01-25T09:38:52;26.90;;;5.73;;
68947;SDS011;55996;49.546;7.400;2024-01-25T09:41:18;29.87;;;7.23;;
68947;SDS011;55996;49.546;7.400;2024-01-25T09:43:43;27.73;;;6.73;;
68947;SDS011;55996;49.546;7.400;2024-01-25T09:46:09;25.43;;;6.13;;
68947;SDS011;55996;49.546;7.400;2024-01-25T09:48:39;27.83;;;6.30;;
68947;SDS011;55996;49.546;7.400;2024-01-25T09:51:05;30.17;;;5.97;;
68947;SDS011;55996;49.546;7.400;2024-01-25T09:53:31;38.23;;;6.30;;
68947;SDS011;55996;49.546;7.400;2024-01-25T09:56:09;27.47;;;6.67;;
68947;SDS011;55996;49.546;7.400;2024-01-25T09:58:43;28.37;;;6.00;;
68947;SDS011;55996;49.546;7.400;2024-01-25T10:01:14;21.97;;;5.77;;
68947;SDS011;55996;49.546;7.400;2024-01-25T10:03:46;22.23;;;5.60;;
68947;SDS011;55996;49.546;7.400;2024-01-25T10:06:12;24.00;;;6.30;;
68947;SDS011;55996;49.546;7.400;2024-01-25T10:08:39;25.60;;;5.87;;
68947;SDS011;55996;49.546;7.400;2024-01-25T10:11:05;27.37;;;5.83;;
68947;SDS011;55996;49.546;7.400;2024-01-25T10:13:31;30.70;;;6.60;;
68947;SDS011;55996;49.546;7.400;2024-01-25T10:15:57;24.47;;;6.10;;
68947;SDS011;55996;49.546;7.400;2024-01-25T10:18:23;27.27;;;5.60;;
68947;SDS011;55996;49.546;7.400;2024-01-25T10:20:52;25.30;;;5.60;;
68947;SDS011;55996;49.546;7.400;2024-01-25T10:23:19;19.90;;;5.40;;
68947;SDS011;55996;49.546;7.400;2024-01-25T10:25:44;27.17;;;5.80;;
68947;SDS011;55996;49.546;7.400;2024-01-25T10:28:10;27.10;;;5.77;;
68947;SDS011;55996;49.546;7.400;2024-01-25T10:30:37;24.00;;;6.00;;
68947;SDS011;55996;49.546;7.400;2024-01-25T10:33:03;28.20;;;6.23;;
68947;SDS011;55996;49.546;7.400;2024-01-25T10:35:30;25.13;;;6.00;;
68947;SDS011;55996;49.546;7.400;2024-01-25T10:37:56;29.17;;;5.80;;
68947;SDS011;55996;49.546;7.400;2024-01-25T10:40:22;28.47;;;5.87;;
68947;SDS011;55996;49.546;7.400;2024-01-25T10:42:48;22.40;;;6.07;;
68947;SDS011;55996;49.546;7.400;2024-01-25T10:45:14;26.40;;;5.87;;
68947;SDS011;55996;49.546;7.400;2024-01-25T10:47:40;21.13;;;5.43;;
68947;SDS011;55996;49.546;7.400;2024-01-25T10:50:10;19.00;;;6.67;;
68947;SDS011;55996;49.546;7.400;2024-01-25T10:52:37;19.50;;;5.17;;
68947;SDS011;55996;49.546;7.400;2024-01-25T10:55:04;25.60;;;6.50;;
68947;SDS011;55996;49.546;7.400;2024-01-25T10:57:42;23.17;;;6.50;;
68947;SDS011;55996;49.546;7.400;2024-01-25T11:00:10;19.53;;;5.13;;
68947;SDS011;55996;49.546;7.400;2024-01-25T11:02:37;25.57;;;5.57;;
68947;SDS011;55996;49.546;7.400;2024-01-25T11:05:14;19.17;;;5.23;;
68947;SDS011;55996;49.546;7.400;2024-01-25T11:07:44;19.87;;;5.90;;
68947;SDS011;55996;49.546;7.400;2024-01-25T11:10:21;24.40;;;5.93;;
68947;SDS011;55996;49.546;7.400;2024-01-25T11:12:57;16.37;;;4.93;;
68947;SDS011;55996;49.546;7.400;2024-01-25T11:15:34;24.47;;;5.73;;
68947;SDS011;55996;49.546;7.400;2024-01-25T11:18:02;27.50;;;5.10;;
68947;SDS011;55996;49.546;7.400;2024-01-25T11:20:31;23.57;;;5.80;;
68947;SDS011;55996;49.546;7.400;2024-01-25T11:22:57;23.47;;;5.73;;
68947;SDS011;55996;49.546;7.400;2024-01-25T11:25:27;22.03;;;5.53;;
68947;SDS011;55996;49.546;7.400;2024-01-25T11:27:56;26.57;;;5.07;;
68947;SDS011;55996;49.546;7.400;2024-01-25T11:30:22;26.70;;;5.50;;
68947;SDS011;55996;49.546;7.400;2024-01-25T11:32:48;28.60;;;5.87;;
68947;SDS011;55996;49.546;7.400;2024-01-25T11:35:14;18.13;;;4.90;;
68947;SDS011;55996;49.546;7.400;2024-01-25T11:37:50;22.43;;;6.00;;
68947;SDS011;55996;49.546;7.400;2024-01-25T11:40:17;22.73;;;5.90;;
68947;SDS011;55996;49.546;7.400;2024-01-25T11:42:43;24.03;;;6.30;;
68947;SDS011;55996;49.546;7.400;2024-01-25T11:45:10;24.43;;;5.63;;
68947;SDS011;55996;49.546;7.400;2024-01-25T11:47:40;17.53;;;4.73;;
68947;SDS011;55996;49.546;7.400;2024-01-25T11:50:07;25.30;;;5.57;;
68947;SDS011;55996;49.546;7.400;2024-01-25T11:52:33;17.63;;;4.10;;
68947;SDS011;55996;49.546;7.400;2024-01-25T11:55:01;21.83;;;5.27;;
68947;SDS011;55996;49.546;7.400;2024-01-25T11:57:31;19.70;;;5.20;;
68947;SDS011;55996;49.546;7.400;2024-01-25T11:59:59;22.90;;;5.10;;
68947;SDS011;55996;49.546;7.400;2024-01-25T12:02:26;28.57;;;5.70;;
68947;SDS011;55996;49.546;7.400;2024-01-25T12:04:52;21.20;;;4.93;;
68947;SDS011;55996;49.546;7.400;2024-01-25T12:07:20;26.00;;;5.50;;
68947;SDS011;55996;49.546;7.400;2024-01-25T12:09:56;19.53;;;5.03;;
68947;SDS011;55996;49.546;7.400;2024-01-25T12:12:29;18.17;;;5.00;;
68947;SDS011;55996;49.546;7.400;2024-01-25T12:14:58;23.67;;;5.20;;
68947;SDS011;55996;49.546;7.400;2024-01-25T12:17:25;22.60;;;5.90;;
68947;SDS011;55996;49.546;7.400;2024-01-25T12:19:58;23.83;;;5.30;;
68947;SDS011;55996;49.546;7.400;2024-01-25T12:22:26;22.87;;;5.83;;
68947;SDS011;55996;49.546;7.400;2024-01-25T12:24:56;28.10;;;6.13;;
68947;SDS011;55996;49.546;7.400;2024-01-25T12:27:22;18.87;;;5.27;;
68947;SDS011;55996;49.546;7.400;2024-01-25T12:29:50;20.83;;;5.53;;
68947;SDS011;55996;49.546;7.400;2024-01-25T12:32:16;16.37;;;4.80;;
68947;SDS011;55996;49.546;7.400;2024-01-25T12:34:52;23.50;;;5.37;;
68947;SDS011;55996;49.546;7.400;2024-01-25T12:37:21;19.37;;;5.50;;
68947;SDS011;55996;49.546;7.400;2024-01-25T12:39:47;17.70;;;5.13;;
68947;SDS011;55996;49.546;7.400;2024-01-25T12:42:12;16.57;;;5.40;;
68947;SDS011;55996;49.546;7.400;2024-01-25T12:44:38;22.00;;;5.20;;
68947;SDS011;55996;49.546;7.400;2024-01-25T12:47:04;18.40;;;5.53;;
68947;SDS011;55996;49.546;7.400;2024-01-25T12:49:31;19.73;;;5.37;;
68947;SDS011;55996;49.546;7.400;2024-01-25T12:51:57;17.27;;;5.30;;
68947;SDS011;55996;49.546;7.400;2024-01-25T12:54:22;18.40;;;4.93;;
68947;SDS011;55996;49.546;7.400;2024-01-25T12:56:48;18.93;;;4.87;;
68947;SDS011;55996;49.546;7.400;2024-01-25T12:59:14;17.07;;;5.13;;
68947;SDS011;55996;49.546;7.400;2024-01-25T13:01:39;26.37;;;6.03;;
68947;SDS011;55996;49.546;7.400;2024-01-25T13:04:05;17.37;;;5.30;;
68947;SDS011;55996;49.546;7.400;2024-01-25T13:06:31;22.90;;;5.60;;
68947;SDS011;55996;49.546;7.400;2024-01-25T13:08:56;24.67;;;6.40;;
68947;SDS011;55996;49.546;7.400;2024-01-25T13:11:21;19.03;;;6.27;;
68947;SDS011;55996;49.546;7.400;2024-01-25T13:13:47;24.07;;;6.43;;
68947;SDS011;55996;49.546;7.400;2024-01-25T13:16:16;20.03;;;5.53;;
68947;SDS011;55996;49.546;7.400;2024-01-25T13:18:41;21.70;;;6.30;;
68947;SDS011;55996;49.546;7.400;2024-01-25T13:21:07;21.30;;;6.20;;
68947;SDS011;55996;49.546;7.400;2024-01-25T13:23:32;18.70;;;6.27;;
68947;SDS011;55996;49.546;7.400;2024-01-25T13:25:58;19.37;;;6.03;;
68947;SDS011;55996;49.546;7.400;2024-01-25T13:28:23;19.90;;;6.20;;
68947;SDS011;55996;49.546;7.400;2024-01-25T13:30:48;28.67;;;6.23;;
68947;SDS011;55996;49.546;7.400;2024-01-25T13:33:14;24.60;;;7.00;;
68947;SDS011;55996;49.546;7.400;2024-01-25T13:35:39;25.47;;;6.20;;
68947;SDS011;55996;49.546;7.400;2024-01-25T13:38:05;21.63;;;5.83;;
68947;SDS011;55996;49.546;7.400;2024-01-25T13:40:30;21.13;;;5.70;;
68947;SDS011;55996;49.546;7.400;2024-01-25T13:42:55;19.80;;;6.60;;
68947;SDS011;55996;49.546;7.400;2024-01-25T13:45:21;24.00;;;6.67;;
68947;SDS011;55996;49.546;7.400;2024-01-25T13:47:46;17.40;;;5.90;;
68947;SDS011;55996;49.546;7.400;2024-01-25T13:50:11;20.93;;;5.90;;
68947;SDS011;55996;49.546;7.400;2024-01-25T13:52:37;25.73;;;6.43;;
68947;SDS011;55996;49.546;7.400;2024-01-25T13:55:02;25.50;;;5.93;;
68947;SDS011;55996;49.546;7.400;2024-01-25T13:57:28;23.73;;;8.23;;
68947;SDS011;55996;49.546;7.400;2024-01-25T13:59:54;20.57;;;5.93;;
68947;SDS011;55996;49.546;7.400;2024-01-25T14:02:19;23.07;;;6.10;;
68947;SDS011;55996;49.546;7.400;2024-01-25T14:04:44;24.97;;;6.00;;
68947;SDS011;55996;49.546;7.400;2024-01-25T14:07:10;22.33;;;6.80;;
68947;SDS011;55996;49.546;7.400;2024-01-25T14:09:35;20.30;;;6.67;;
68947;SDS011;55996;49.546;7.400;2024-01-25T14:12:02;16.23;;;5.30;;
68947;SDS011;55996;49.546;7.400;2024-01-25T14:14:28;16.20;;;5.80;;
68947;SDS011;55996;49.546;7.400;2024-01-25T14:16:53;26.17;;;6.17;;
68947;SDS011;55996;49.546;7.400;2024-01-25T14:19:19;19.57;;;5.20;;
68947;SDS011;55996;49.546;7.400;2024-01-25T14:21:45;22.70;;;5.57;;
68947;SDS011;55996;49.546;7.400;2024-01-25T14:24:12;14.93;;;5.00;;
68947;SDS011;55996;49.546;7.400;2024-01-25T14:26:37;16.93;;;4.50;;
68947;SDS011;55996;49.546;7.400;2024-01-25T14:29:03;19.73;;;5.67;;